CheckWX is a tool to help pilots better visualize weather data.  It is not intended as a substitute for an official pre-flight weather briefing.

13:06:06 UTC

KMCN TAF
Middle Georgia Regional Airport
Macon, Georgia, USA
KMCN 161134Z 1612/1712 13004KT P6SM FEW250 FM161500 24004KT P6SM SCT040 FM161800 20007KT P6SM SCT050 FM162200 17005KT P6SM SCT050 FM170100 VRB03KT P6SM BKN250

Jun-16@
12:00 UTC

Jun-16 @ 12:00 UTC

Jun-16@
15:00 UTC

Jun-16 @ 15:00 UTC

KMCN 161134Z 1612/1712 13004KT P6SM FEW250
Wind
  • 130° at 4 KTS
Cloud Levels
  • Few at 25,000' AGL

Jun-16@
15:00 UTC

Jun-16 @ 15:00 UTC

Jun-16@
18:00 UTC

Jun-16 @ 18:00 UTC

FM161500 24004KT P6SM SCT040

From

From Standard forecast or significant change

Wind
  • 240° at 4 KTS
Cloud Levels
  • Scattered at 4,000' AGL

Jun-16@
18:00 UTC

Jun-16 @ 18:00 UTC

Jun-16@
22:00 UTC

Jun-16 @ 22:00 UTC

FM161800 20007KT P6SM SCT050

From

From Standard forecast or significant change

Wind
  • 200° at 7 KTS
Cloud Levels
  • Scattered at 5,000' AGL

Jun-16@
22:00 UTC

Jun-16 @ 22:00 UTC

Jun-17@
01:00 UTC

Jun-17 @ 01:00 UTC

FM162200 17005KT P6SM SCT050

From

From Standard forecast or significant change

Wind
  • 170° at 5 KTS
Cloud Levels
  • Scattered at 5,000' AGL

Jun-17@
01:00 UTC

Jun-17 @ 01:00 UTC

Jun-17@
12:00 UTC

Jun-17 @ 12:00 UTC

FM170100 VRB03KT P6SM BKN250

From

From Standard forecast or significant change

Wind
  • Variable at 3 KTS
Cloud Levels
  • Broken at 25,000' AGL